Time;durP1;ratioP1;P1;durP2;ratioP2;P2;SDS_P1;SDS_P2;PMS_P1;PMS_P2;Temp;Humidity;BMP_temperature;BMP_pressure;BME280_temperature;BME280_humidity;BME280_pressure;Samples;Min_cycle;Max_cycle;Signal;HPM_P1;HPM_P2
2023/11/12 00:02:22;;;;;;;10.43;9.33;;;7.00;99.90;;;;;;5086684;28;20235;-64
2023/11/12 00:04:48;;;;;;;10.20;9.10;;;7.10;99.90;;;;;;5086688;28;20295;-64
2023/11/12 00:07:14;;;;;;;9.70;8.70;;;7.10;99.90;;;;;;5085733;28;20452;-62
2023/11/12 00:09:40;;;;;;;10.87;9.07;;;7.10;99.90;;;;;;5087575;28;20427;-65
2023/11/12 00:12:07;;;;;;;9.60;8.70;;;7.00;99.90;;;;;;5085883;28;20422;-63
2023/11/12 00:14:33;;;;;;;12.17;9.57;;;7.00;99.90;;;;;;5084627;28;20441;-65
2023/11/12 00:16:59;;;;;;;11.83;8.37;;;7.00;99.90;;;;;;5085763;28;20446;-65
2023/11/12 00:19:24;;;;;;;10.27;8.97;;;7.10;99.90;;;;;;5087843;28;20237;-62
2023/11/12 00:21:50;;;;;;;13.83;8.47;;;7.10;99.90;;;;;;5088004;28;20665;-62
2023/11/12 00:24:17;;;;;;;12.13;9.53;;;7.20;99.90;;;;;;5082566;28;20960;-63
2023/11/12 00:26:43;;;;;;;9.77;8.50;;;7.20;99.90;;;;;;5087660;28;20187;-62
2023/11/12 00:29:16;;;;;;;8.97;8.07;;;7.30;99.90;;;;;;5087439;28;20501;-63
2023/11/12 00:31:42;;;;;;;9.13;8.23;;;7.30;99.90;;;;;;5085956;28;20425;-64
2023/11/12 00:34:07;;;;;;;10.23;8.57;;;7.40;99.90;;;;;;5084239;28;20815;-65
2023/11/12 00:36:33;;;;;;;13.77;9.23;;;7.40;99.90;;;;;;5090271;28;20264;-65
2023/11/12 00:38:59;;;;;;;10.47;9.20;;;7.50;99.90;;;;;;5076293;28;20201;-65
2023/11/12 00:41:24;;;;;;;11.80;10.03;;;7.50;99.90;;;;;;5094742;28;20266;-64
2023/11/12 00:43:50;;;;;;;9.87;8.20;;;7.60;99.90;;;;;;5090616;28;20214;-65
2023/11/12 00:46:16;;;;;;;12.00;9.47;;;7.50;99.90;;;;;;5094598;28;20207;-65
2023/11/12 00:48:44;;;;;;;12.60;8.80;;;7.50;99.90;;;;;;5092577;28;20434;-64
2023/11/12 00:51:10;;;;;;;11.23;9.90;;;7.50;99.90;;;;;;5092490;28;20195;-64
2023/11/12 00:53:36;;;;;;;11.57;9.07;;;7.50;99.90;;;;;;5094751;28;20429;-65
2023/11/12 00:56:01;;;;;;;9.73;8.73;;;7.50;99.90;;;;;;5093893;28;20440;-65
2023/11/12 00:58:27;;;;;;;12.37;9.73;;;7.50;99.90;;;;;;5094837;28;20562;-63
2023/11/12 01:00:53;;;;;;;11.10;10.00;;;7.50;99.90;;;;;;5095044;28;20199;-64
2023/11/12 01:03:19;;;;;;;12.27;9.63;;;7.50;99.90;;;;;;5093226;28;20430;-65
2023/11/12 01:05:44;;;;;;;14.23;9.07;;;7.50;99.90;;;;;;5095241;28;20272;-65
2023/11/12 01:08:10;;;;;;;9.00;8.10;;;7.50;99.90;;;;;;5091968;28;20184;-63
2023/11/12 01:10:36;;;;;;;12.40;8.87;;;7.50;99.90;;;;;;5095670;28;20753;-65
2023/11/12 01:13:02;;;;;;;9.63;8.63;;;7.50;99.90;;;;;;5096192;28;20210;-63
2023/11/12 01:15:29;;;;;;;12.17;9.40;;;7.50;99.90;;;;;;5094301;28;20199;-64
2023/11/12 01:17:55;;;;;;;9.87;8.97;;;7.40;99.90;;;;;;5095026;28;20796;-64
2023/11/12 01:20:22;;;;;;;9.60;8.60;;;7.50;99.90;;;;;;5093416;28;20973;-62
2023/11/12 01:22:48;;;;;;;9.80;8.73;;;7.50;99.90;;;;;;5094420;28;20881;-65
2023/11/12 01:25:14;;;;;;;9.90;8.90;;;7.40;99.90;;;;;;5096981;28;20495;-65
2023/11/12 01:27:40;;;;;;;10.00;8.50;;;7.50;99.90;;;;;;5094853;28;20433;-64
2023/11/12 01:30:07;;;;;;;11.20;8.20;;;7.40;99.90;;;;;;5094309;28;21119;-63
2023/11/12 01:32:33;;;;;;;10.60;8.93;;;7.50;99.90;;;;;;5093339;28;20452;-63
2023/11/12 01:34:59;;;;;;;10.90;8.20;;;7.50;99.90;;;;;;5094222;28;20788;-63
2023/11/12 01:37:25;;;;;;;9.83;8.90;;;7.60;99.90;;;;;;5093875;28;20175;-63
2023/11/12 01:39:51;;;;;;;10.70;8.60;;;7.50;99.90;;;;;;5093428;28;20445;-65
2023/11/12 01:42:16;;;;;;;10.97;8.60;;;7.50;99.90;;;;;;5093523;28;20175;-64
2023/11/12 01:44:43;;;;;;;11.33;8.00;;;7.50;99.90;;;;;;5092798;28;20215;-63
2023/11/12 01:47:10;;;;;;;10.73;9.07;;;7.40;99.90;;;;;;5093878;28;20200;-63
2023/11/12 01:49:37;;;;;;;13.93;9.87;;;7.40;99.90;;;;;;5089602;28;20482;-62
2023/11/12 01:52:08;;;;;;;8.43;7.50;;;7.40;99.90;;;;;;5090710;28;20521;-63
2023/11/12 01:54:37;;;;;;;9.70;8.70;;;7.40;99.90;;;;;;5089223;28;20900;-63
2023/11/12 01:57:03;;;;;;;13.17;9.30;;;7.50;99.90;;;;;;5093739;28;20418;-62
2023/11/12 01:59:33;;;;;;;11.13;8.60;;;7.50;99.90;;;;;;5090302;28;20434;-61
2023/11/12 02:01:58;;;;;;;8.73;7.87;;;7.40;99.90;;;;;;5090950;28;20427;-64
2023/11/12 02:04:26;;;;;;;14.40;9.33;;;7.40;99.90;;;;;;5057364;28;20466;-64
2023/11/12 02:06:52;;;;;;;9.63;8.53;;;7.40;99.90;;;;;;5091510;28;20190;-63
2023/11/12 02:09:18;;;;;;;12.70;9.03;;;7.40;99.90;;;;;;5092906;28;21192;-63
2023/11/12 02:11:44;;;;;;;9.70;8.70;;;7.40;99.90;;;;;;5090954;28;20663;-64
2023/11/12 02:14:10;;;;;;;11.03;8.17;;;7.50;99.90;;;;;;5089941;28;20441;-64
2023/11/12 02:16:36;;;;;;;9.63;8.60;;;7.50;99.90;;;;;;5090326;28;20422;-64
2023/11/12 02:19:01;;;;;;;11.00;8.90;;;7.50;99.90;;;;;;5090727;28;20924;-63
2023/11/12 02:21:33;;;;;;;9.10;8.20;;;7.50;99.90;;;;;;5090080;28;21013;-64
2023/11/12 02:23:59;;;;;;;9.80;7.97;;;7.60;99.90;;;;;;5089630;28;20265;-65
2023/11/12 02:26:25;;;;;;;10.27;8.87;;;7.60;99.90;;;;;;5089642;28;20421;-65
2023/11/12 02:28:50;;;;;;;10.20;9.00;;;7.60;99.90;;;;;;5090732;28;20669;-62
2023/11/12 02:31:16;;;;;;;9.90;8.17;;;7.60;99.90;;;;;;5090181;28;20199;-63
2023/11/12 02:33:43;;;;;;;10.67;8.80;;;7.70;99.90;;;;;;5086857;28;20333;-65
2023/11/12 02:36:09;;;;;;;8.80;7.90;;;7.70;99.90;;;;;;5089767;28;20193;-64
2023/11/12 02:38:34;;;;;;;9.80;8.80;;;7.70;99.90;;;;;;5089799;28;21148;-64
2023/11/12 02:41:02;;;;;;;9.83;8.27;;;7.70;99.90;;;;;;5088193;28;20191;-62
2023/11/12 02:43:28;;;;;;;11.30;9.57;;;7.60;99.90;;;;;;5089417;28;20195;-65
2023/11/12 02:45:55;;;;;;;11.37;7.63;;;7.50;99.90;;;;;;5088974;28;20577;-65
2023/11/12 02:48:20;;;;;;;9.33;8.40;;;7.50;99.90;;;;;;5089589;28;20430;-63
2023/11/12 02:50:47;;;;;;;9.83;8.80;;;7.60;99.90;;;;;;5092684;28;20429;-65
2023/11/12 02:53:13;;;;;;;10.30;8.60;;;7.50;99.90;;;;;;5088910;28;20591;-64
2023/11/12 02:55:38;;;;;;;14.20;9.30;;;7.50;99.90;;;;;;5088712;28;20422;-63
2023/11/12 02:58:04;;;;;;;11.30;9.30;;;7.50;99.90;;;;;;5093047;28;20192;-65
2023/11/12 03:00:31;;;;;;;10.20;8.50;;;7.50;99.90;;;;;;5089415;28;20495;-64
2023/11/12 03:03:00;;;;;;;9.73;8.13;;;7.60;99.90;;;;;;5089609;28;20194;-63
2023/11/12 03:05:27;;;;;;;11.00;9.53;;;7.60;99.90;;;;;;5088639;28;20465;-65
2023/11/12 03:07:53;;;;;;;9.73;8.73;;;7.50;99.90;;;;;;5093239;28;20438;-63
2023/11/12 03:10:18;;;;;;;10.57;9.50;;;7.60;99.90;;;;;;5089153;28;20603;-63
2023/11/12 03:12:44;;;;;;;9.47;8.37;;;7.50;99.90;;;;;;5089039;28;20959;-63
2023/11/12 03:15:11;;;;;;;8.73;7.83;;;7.50;99.90;;;;;;5087388;28;20184;-62
2023/11/12 03:17:38;;;;;;;10.53;7.93;;;7.50;99.90;;;;;;5088491;28;20192;-64
2023/11/12 03:20:06;;;;;;;9.67;8.67;;;7.40;99.90;;;;;;5088121;28;20430;-62
2023/11/12 03:22:33;;;;;;;12.23;8.87;;;7.40;99.90;;;;;;5088769;28;20867;-65
2023/11/12 03:25:00;;;;;;;9.83;8.50;;;7.50;99.90;;;;;;5088485;28;20478;-63
2023/11/12 03:27:26;;;;;;;10.93;8.13;;;7.60;99.90;;;;;;5087387;28;20433;-64
2023/11/12 03:29:52;;;;;;;9.80;8.67;;;7.60;99.90;;;;;;5089587;28;20434;-62
2023/11/12 03:32:21;;;;;;;11.40;7.80;;;7.50;99.90;;;;;;5088851;28;20425;-63
2023/11/12 03:34:50;;;;;;;8.73;7.80;;;7.50;99.90;;;;;;5088070;28;20310;-65
2023/11/12 03:37:20;;;;;;;9.00;8.10;;;7.50;99.90;;;;;;5086418;28;20440;-65
2023/11/12 03:39:47;;;;;;;8.53;7.50;;;7.50;99.90;;;;;;5088355;28;20492;-62
2023/11/12 03:42:15;;;;;;;9.77;8.17;;;7.50;99.90;;;;;;5091062;28;20501;-65
2023/11/12 03:44:41;;;;;;;8.90;7.33;;;7.40;99.90;;;;;;5088482;28;20503;-64
2023/11/12 03:47:07;;;;;;;7.80;6.93;;;7.50;99.90;;;;;;5090701;28;21295;-65
2023/11/12 03:49:33;;;;;;;9.40;8.40;;;7.40;99.90;;;;;;5089239;28;20466;-63
2023/11/12 03:51:58;;;;;;;8.70;7.53;;;7.40;99.90;;;;;;5089574;28;20291;-63
2023/11/12 03:54:24;;;;;;;10.30;8.17;;;7.40;99.90;;;;;;5087242;28;20268;-65
2023/11/12 03:56:49;;;;;;;10.43;7.90;;;7.40;99.90;;;;;;5086872;28;20219;-63
2023/11/12 03:59:15;;;;;;;9.47;7.20;;;7.40;99.90;;;;;;5088427;28;20199;-62
2023/11/12 04:01:41;;;;;;;12.57;7.50;;;7.40;99.90;;;;;;5086719;28;20248;-62
2023/11/12 04:04:07;;;;;;;8.83;7.57;;;7.40;99.90;;;;;;5084392;28;20216;-65
2023/11/12 04:06:32;;;;;;;10.53;8.17;;;7.40;99.90;;;;;;5087769;28;21211;-63
2023/11/12 04:08:58;;;;;;;11.10;8.20;;;7.40;99.90;;;;;;5088311;28;20180;-63
2023/11/12 04:11:24;;;;;;;8.17;7.30;;;7.30;99.90;;;;;;5085950;28;20176;-65
2023/11/12 04:13:50;;;;;;;8.43;7.00;;;7.40;99.90;;;;;;5084806;28;20219;-63
2023/11/12 04:16:15;;;;;;;9.20;7.63;;;7.40;99.90;;;;;;5087409;28;20783;-65
2023/11/12 04:18:43;;;;;;;12.03;7.63;;;7.40;99.90;;;;;;5087925;28;20240;-63
2023/11/12 04:21:10;;;;;;;9.10;7.50;;;7.30;99.90;;;;;;5088685;28;20179;-63
2023/11/12 04:23:36;;;;;;;8.47;7.40;;;7.40;99.90;;;;;;5084620;28;20437;-63
2023/11/12 04:26:02;;;;;;;8.93;7.87;;;7.40;99.90;;;;;;5087217;28;21520;-63
2023/11/12 04:28:28;;;;;;;14.37;7.83;;;7.50;99.90;;;;;;5088700;28;21008;-65
2023/11/12 04:30:55;;;;;;;10.50;7.67;;;7.50;99.90;;;;;;5087082;28;20226;-63
2023/11/12 04:33:21;;;;;;;8.60;6.80;;;7.50;99.90;;;;;;5089370;28;20430;-63
2023/11/12 04:35:49;;;;;;;10.43;7.60;;;7.40;99.90;;;;;;5086895;28;20542;-64
2023/11/12 04:38:18;;;;;;;11.93;7.30;;;7.50;99.90;;;;;;5087615;28;20186;-63
2023/11/12 04:40:44;;;;;;;9.90;7.97;;;7.50;99.90;;;;;;5087325;28;20422;-65
2023/11/12 04:43:10;;;;;;;10.43;8.30;;;7.50;99.90;;;;;;5087823;28;21118;-63
2023/11/12 04:45:35;;;;;;;10.47;7.30;;;7.50;99.90;;;;;;5089908;28;20473;-64
2023/11/12 04:48:01;;;;;;;8.07;7.27;;;7.60;99.90;;;;;;5088066;28;20654;-63
2023/11/12 04:50:28;;;;;;;9.07;7.33;;;7.60;99.90;;;;;;5087163;28;21014;-63
2023/11/12 04:52:54;;;;;;;10.00;7.13;;;7.60;99.90;;;;;;5090391;28;20192;-63
2023/11/12 04:55:20;;;;;;;7.47;6.67;;;7.50;99.90;;;;;;5086908;28;20434;-65
2023/11/12 04:57:45;;;;;;;7.13;5.87;;;7.50;99.90;;;;;;5087586;28;20590;-62
2023/11/12 05:00:11;;;;;;;11.10;8.20;;;7.50;99.90;;;;;;5088244;28;20188;-63
2023/11/12 05:02:37;;;;;;;7.50;6.80;;;7.50;99.90;;;;;;5087751;28;20279;-65
2023/11/12 05:05:03;;;;;;;9.10;7.53;;;7.50;99.90;;;;;;5086257;28;20509;-63
2023/11/12 05:07:29;;;;;;;6.77;6.07;;;7.40;99.90;;;;;;5088635;28;20225;-63
2023/11/12 05:09:54;;;;;;;7.40;6.27;;;7.50;99.90;;;;;;5087235;28;20489;-64
2023/11/12 05:12:21;;;;;;;8.13;7.27;;;7.50;99.90;;;;;;5084752;28;20189;-64
2023/11/12 05:14:46;;;;;;;7.63;6.80;;;7.50;99.90;;;;;;5087079;28;20240;-64
2023/11/12 05:17:12;;;;;;;8.53;6.43;;;7.50;99.90;;;;;;5087385;28;20414;-65
2023/11/12 05:19:38;;;;;;;7.40;6.27;;;7.50;99.90;;;;;;5088271;28;20432;-64
2023/11/12 05:22:04;;;;;;;7.57;6.83;;;7.50;99.90;;;;;;5086744;28;20211;-65
2023/11/12 05:24:29;;;;;;;7.27;6.10;;;7.50;99.90;;;;;;5090372;28;20489;-64
2023/11/12 05:26:55;;;;;;;7.60;6.80;;;7.60;99.90;;;;;;5090415;28;20187;-63
2023/11/12 05:29:21;;;;;;;7.73;6.30;;;7.60;99.90;;;;;;5089007;28;20180;-64
2023/11/12 05:31:47;;;;;;;7.80;6.60;;;7.50;99.90;;;;;;5092170;28;20924;-63
2023/11/12 05:34:13;;;;;;;8.60;6.50;;;7.50;99.90;;;;;;5089555;28;20635;-63
2023/11/12 05:36:41;;;;;;;7.00;6.30;;;7.50;99.90;;;;;;5092370;28;20437;-64
2023/11/12 05:39:07;;;;;;;9.27;7.27;;;7.60;99.90;;;;;;5090257;28;20490;-62
2023/11/12 05:41:33;;;;;;;9.60;6.27;;;7.50;99.90;;;;;;5091478;28;20427;-63
2023/11/12 05:43:59;;;;;;;6.80;6.10;;;7.60;99.90;;;;;;5090371;28;20231;-62
2023/11/12 05:46:26;;;;;;;9.23;8.23;;;7.50;99.90;;;;;;5090798;28;20214;-65
2023/11/12 05:48:52;;;;;;;8.93;6.53;;;7.60;99.90;;;;;;5090930;28;20900;-64
2023/11/12 05:51:19;;;;;;;7.53;6.73;;;7.60;99.90;;;;;;5088894;28;20529;-62
2023/11/12 05:53:45;;;;;;;7.30;6.60;;;7.50;99.90;;;;;;5093227;28;20275;-63
2023/11/12 05:56:10;;;;;;;8.53;5.87;;;7.50;99.90;;;;;;5072299;28;20418;-65
2023/11/12 05:58:36;;;;;;;7.17;6.57;;;7.50;99.90;;;;;;5091409;28;20863;-64
2023/11/12 06:01:02;;;;;;;9.07;6.20;;;7.40;99.90;;;;;;5090591;28;20660;-63
2023/11/12 06:03:28;;;;;;;6.53;5.83;;;7.40;99.90;;;;;;5089741;28;20176;-62
2023/11/12 06:05:53;;;;;;;7.77;5.80;;;7.50;99.90;;;;;;5088481;28;20512;-64
2023/11/12 06:08:19;;;;;;;6.53;4.93;;;7.50;99.90;;;;;;5090529;28;20196;-65
2023/11/12 06:10:45;;;;;;;8.53;6.00;;;7.50;99.90;;;;;;5090918;28;20184;-65
2023/11/12 06:13:10;;;;;;;6.43;5.40;;;7.60;99.90;;;;;;5088666;28;20191;-64
2023/11/12 06:15:36;;;;;;;6.20;5.60;;;7.60;99.90;;;;;;5090825;28;20191;-62
2023/11/12 06:18:03;;;;;;;5.73;5.10;;;7.50;99.90;;;;;;5093217;28;20227;-63
2023/11/12 06:20:29;;;;;;;8.80;5.63;;;7.40;99.90;;;;;;5090608;28;20256;-63
2023/11/12 06:22:56;;;;;;;5.23;4.40;;;7.40;99.90;;;;;;5090167;28;20460;-65
2023/11/12 06:25:25;;;;;;;6.30;4.93;;;7.40;99.90;;;;;;5085768;28;20801;-65
2023/11/12 06:27:51;;;;;;;6.60;5.43;;;7.30;99.90;;;;;;5090019;28;20926;-65
2023/11/12 06:30:17;;;;;;;5.90;5.30;;;7.20;99.90;;;;;;5089886;28;20422;-63
2023/11/12 06:32:44;;;;;;;6.57;5.20;;;7.20;99.90;;;;;;5090277;28;20426;-64
2023/11/12 06:35:09;;;;;;;6.00;4.90;;;7.10;99.90;;;;;;5089079;28;20463;-62
2023/11/12 06:37:35;;;;;;;5.90;5.17;;;7.10;99.90;;;;;;5090221;28;21168;-63
2023/11/12 06:40:01;;;;;;;6.17;5.67;;;7.10;99.90;;;;;;5090133;28;20234;-64
2023/11/12 06:42:27;;;;;;;6.77;5.10;;;7.10;99.90;;;;;;5089526;28;20195;-63
2023/11/12 06:44:53;;;;;;;6.43;5.30;;;7.10;99.90;;;;;;5089611;28;20478;-64
2023/11/12 06:47:18;;;;;;;5.83;5.23;;;7.10;99.90;;;;;;5089539;28;20448;-64
2023/11/12 06:49:44;;;;;;;6.13;5.40;;;7.10;99.90;;;;;;5092190;28;20599;-64
2023/11/12 06:52:10;;;;;;;7.33;5.73;;;7.10;99.90;;;;;;5089590;28;20530;-63
2023/11/12 06:54:36;;;;;;;5.67;5.00;;;7.10;99.90;;;;;;5088512;28;20229;-63
2023/11/12 06:57:01;;;;;;;6.00;5.40;;;7.10;99.90;;;;;;5090272;28;20958;-63
2023/11/12 06:59:28;;;;;;;5.23;4.73;;;7.00;99.90;;;;;;5089188;28;20188;-65
2023/11/12 07:01:54;;;;;;;5.43;4.70;;;7.10;99.90;;;;;;5088332;28;20180;-64
2023/11/12 07:04:20;;;;;;;5.20;4.67;;;7.10;99.90;;;;;;5088298;28;20472;-63
2023/11/12 07:06:46;;;;;;;7.97;5.53;;;7.10;99.90;;;;;;5088913;28;20437;-65
2023/11/12 07:09:12;;;;;;;6.60;5.10;;;7.20;99.90;;;;;;5089563;28;20941;-62
2023/11/12 07:11:38;;;;;;;7.60;4.97;;;7.10;99.90;;;;;;5089536;28;20200;-63
2023/11/12 07:14:04;;;;;;;5.60;5.00;;;7.20;99.90;;;;;;5088549;28;20572;-64
2023/11/12 07:16:29;;;;;;;5.60;5.10;;;7.20;99.90;;;;;;5089269;28;20230;-63
2023/11/12 07:18:58;;;;;;;5.63;4.87;;;7.20;99.90;;;;;;5092945;28;20267;-63
2023/11/12 07:21:30;;;;;;;6.90;5.30;;;7.20;99.90;;;;;;5088139;28;20234;-63
2023/11/12 07:23:57;;;;;;;8.60;6.00;;;7.10;99.90;;;;;;5087749;28;20440;-63
2023/11/12 07:26:24;;;;;;;5.13;4.73;;;7.10;99.90;;;;;;5088638;28;20510;-65
2023/11/12 07:28:50;;;;;;;6.40;5.30;;;7.10;99.90;;;;;;5093407;28;20430;-63
2023/11/12 07:31:17;;;;;;;5.50;4.87;;;7.20;99.90;;;;;;5070222;28;20421;-65
2023/11/12 07:33:43;;;;;;;5.87;5.17;;;7.20;99.90;;;;;;5089225;28;20435;-65
2023/11/12 07:36:11;;;;;;;7.23;5.20;;;7.30;99.90;;;;;;5090086;28;20429;-65
2023/11/12 07:38:37;;;;;;;6.60;5.97;;;7.30;99.90;;;;;;5088602;28;21228;-62
2023/11/12 07:41:03;;;;;;;6.23;4.50;;;7.30;99.90;;;;;;5087406;28;20445;-63
2023/11/12 07:43:28;;;;;;;5.30;4.43;;;7.40;99.90;;;;;;5087861;28;20472;-64
2023/11/12 07:45:54;;;;;;;4.63;4.20;;;7.50;99.90;;;;;;5087849;28;20470;-62
2023/11/12 07:48:19;;;;;;;7.13;4.90;;;7.40;99.90;;;;;;5087945;28;20191;-65
2023/11/12 07:50:46;;;;;;;5.17;4.67;;;7.40;99.90;;;;;;5087096;28;20623;-64
2023/11/12 07:53:12;;;;;;;5.30;4.80;;;7.40;99.90;;;;;;5087975;28;20557;-64
2023/11/12 07:55:38;;;;;;;7.50;5.10;;;7.40;99.90;;;;;;5086451;28;20178;-62
2023/11/12 07:58:04;;;;;;;9.83;5.47;;;7.40;99.90;;;;;;5071463;28;20812;-63
2023/11/12 08:00:29;;;;;;;4.97;4.47;;;7.40;99.90;;;;;;5088975;28;20195;-65
2023/11/12 08:02:57;;;;;;;5.83;4.90;;;7.50;99.90;;;;;;5088068;28;20234;-63
2023/11/12 08:05:23;;;;;;;5.20;4.20;;;7.50;99.90;;;;;;5087312;28;20247;-64
2023/11/12 08:07:50;;;;;;;5.60;4.80;;;7.60;99.90;;;;;;5089014;28;20520;-64
2023/11/12 08:10:18;;;;;;;4.50;4.10;;;7.80;99.90;;;;;;5085955;28;20227;-66
2023/11/12 08:12:44;;;;;;;5.30;4.80;;;8.20;99.90;;;;;;5054236;28;20472;-62
2023/11/12 08:15:12;;;;;;;6.97;5.07;;;8.60;99.90;;;;;;5088210;28;20430;-64
2023/11/12 08:17:39;;;;;;;6.13;4.70;;;9.00;99.90;;;;;;5091224;28;20477;-65
2023/11/12 08:20:05;;;;;;;5.30;4.77;;;9.40;99.90;;;;;;5089097;28;21176;-65
2023/11/12 08:22:31;;;;;;;5.57;4.30;;;9.70;99.90;;;;;;5088340;28;20432;-64
2023/11/12 08:24:57;;;;;;;4.83;4.33;;;10.00;99.90;;;;;;5090860;28;20677;-64
2023/11/12 08:27:23;;;;;;;4.40;4.00;;;10.20;99.90;;;;;;5088626;28;20979;-65
2023/11/12 08:29:49;;;;;;;5.83;4.50;;;10.50;99.90;;;;;;5088405;28;20436;-64
2023/11/12 08:32:15;;;;;;;5.03;4.17;;;10.60;99.90;;;;;;5088547;28;20237;-65
2023/11/12 08:34:41;;;;;;;5.00;4.33;;;10.70;99.90;;;;;;5087449;28;20516;-63
2023/11/12 08:37:07;;;;;;;5.43;4.17;;;10.90;99.90;;;;;;5087598;28;20429;-65
2023/11/12 08:39:33;;;;;;;4.53;3.80;;;11.00;99.90;;;;;;5088136;28;20267;-65
2023/11/12 08:41:59;;;;;;;5.10;3.83;;;11.20;99.90;;;;;;5085763;28;20437;-64
2023/11/12 08:44:25;;;;;;;4.63;3.80;;;11.10;99.90;;;;;;5087474;28;20299;-64
2023/11/12 08:46:51;;;;;;;5.40;4.20;;;11.20;99.90;;;;;;5088270;28;20215;-62
2023/11/12 08:49:17;;;;;;;4.33;3.70;;;11.50;99.90;;;;;;5087424;28;20426;-64
2023/11/12 08:51:43;;;;;;;5.97;3.80;;;11.50;99.90;;;;;;5086192;28;20434;-65
2023/11/12 08:54:09;;;;;;;6.33;3.73;;;11.60;99.90;;;;;;5087407;28;20425;-62
2023/11/12 08:56:36;;;;;;;3.87;3.53;;;11.60;99.90;;;;;;5088124;28;20508;-64
2023/11/12 08:59:03;;;;;;;4.20;3.40;;;11.80;99.90;;;;;;5095220;28;20183;-63
2023/11/12 09:01:34;;;;;;;4.23;3.83;;;11.90;99.90;;;;;;5091668;28;20494;-66
2023/11/12 09:03:59;;;;;;;4.57;3.73;;;12.10;99.90;;;;;;5090388;28;20433;-65
2023/11/12 09:06:25;;;;;;;3.90;3.43;;;12.20;99.90;;;;;;5087789;28;20457;-65
2023/11/12 09:08:51;;;;;;;3.67;3.37;;;12.20;99.90;;;;;;5092625;28;20266;-65
2023/11/12 09:11:16;;;;;;;4.10;3.70;;;12.20;99.90;;;;;;5090205;28;20192;-62
2023/11/12 09:13:43;;;;;;;4.77;3.97;;;12.30;99.90;;;;;;5090421;28;20176;-65
2023/11/12 09:16:08;;;;;;;3.80;3.30;;;12.50;99.90;;;;;;5072377;28;20246;-62
2023/11/12 09:18:34;;;;;;;5.90;3.90;;;12.70;99.90;;;;;;5092106;28;20433;-62
2023/11/12 09:21:00;;;;;;;3.37;3.07;;;12.80;99.90;;;;;;5091503;28;20184;-63
2023/11/12 09:23:26;;;;;;;6.93;3.60;;;12.90;99.90;;;;;;5090948;28;20208;-63
2023/11/12 09:25:51;;;;;;;4.00;3.37;;;13.00;99.90;;;;;;5091336;28;20838;-64
2023/11/12 09:28:17;;;;;;;4.97;3.83;;;13.20;99.90;;;;;;5091481;28;20212;-64
2023/11/12 09:30:43;;;;;;;3.33;3.03;;;13.10;99.90;;;;;;5088781;28;20180;-64
2023/11/12 09:33:12;;;;;;;4.50;3.47;;;13.20;99.90;;;;;;5088993;28;20425;-63
2023/11/12 09:35:41;;;;;;;4.10;3.70;;;13.20;99.90;;;;;;5089455;28;20434;-63
2023/11/12 09:38:07;;;;;;;3.70;3.30;;;13.20;99.90;;;;;;5089298;28;20495;-63
2023/11/12 09:40:32;;;;;;;4.50;3.83;;;13.30;99.90;;;;;;5088005;28;20426;-62
2023/11/12 09:42:59;;;;;;;5.70;3.47;;;13.30;99.90;;;;;;5089908;28;20422;-64
2023/11/12 09:45:28;;;;;;;3.83;3.47;;;13.00;99.90;;;;;;5090254;28;20212;-63
2023/11/12 09:47:53;;;;;;;5.00;3.40;;;13.10;99.90;;;;;;5089619;28;20460;-63
2023/11/12 09:50:24;;;;;;;3.70;3.30;;;13.00;99.90;;;;;;5088675;28;20434;-63
2023/11/12 09:52:51;;;;;;;4.23;3.20;;;13.00;99.90;;;;;;5087866;28;20192;-64
2023/11/12 09:55:19;;;;;;;3.10;2.90;;;13.30;99.90;;;;;;5085477;28;20438;-63
2023/11/12 09:57:46;;;;;;;5.37;3.30;;;13.30;99.90;;;;;;5094296;28;20445;-64
2023/11/12 10:00:13;;;;;;;4.33;3.67;;;13.50;99.90;;;;;;5087335;28;20454;-63
2023/11/12 10:02:40;;;;;;;4.63;3.23;;;13.50;99.90;;;;;;5080915;28;20987;-64
2023/11/12 10:05:13;;;;;;;3.10;2.80;;;13.30;99.90;;;;;;5083603;28;21190;-63
2023/11/12 10:07:42;;;;;;;4.80;3.57;;;13.00;99.90;;;;;;5089761;28;21442;-65
2023/11/12 10:10:27;;;;;;;3.20;2.90;;;12.90;99.90;;;;;;5086590;28;20469;-65
2023/11/12 10:12:54;;;;;;;3.80;3.43;;;12.90;99.90;;;;;;5088764;28;21055;-63
2023/11/12 10:15:24;;;;;;;3.30;3.00;;;12.60;99.90;;;;;;5088443;28;20462;-64
2023/11/12 10:17:51;;;;;;;4.07;3.20;;;12.50;99.90;;;;;;5087044;28;20453;-63
2023/11/12 10:20:25;;;;;;;4.80;3.30;;;12.30;99.90;;;;;;5089959;28;20477;-65
2023/11/12 10:22:52;;;;;;;6.03;3.07;;;12.20;99.90;;;;;;5088575;28;20497;-63
2023/11/12 10:25:35;;;;;;;5.23;3.10;;;12.10;99.90;;;;;;5088863;28;21007;-65
2023/11/12 10:28:02;;;;;;;2.80;2.60;;;12.10;99.90;;;;;;5089259;28;20438;-64
2023/11/12 10:30:28;;;;;;;3.20;2.90;;;12.00;99.90;;;;;;5088537;28;20795;-63
2023/11/12 10:32:58;;;;;;;3.40;3.10;;;12.00;99.90;;;;;;5087967;28;20447;-63
2023/11/12 10:35:31;;;;;;;3.57;2.63;;;11.90;99.90;;;;;;5083699;28;20647;-63
2023/11/12 10:38:02;;;;;;;4.23;2.87;;;11.90;99.90;;;;;;5088495;28;20522;-63
2023/11/12 10:40:28;;;;;;;3.73;2.67;;;11.60;99.90;;;;;;5088621;28;20487;-64
2023/11/12 10:43:00;;;;;;;3.20;2.70;;;11.50;99.90;;;;;;5087368;28;20478;-63
2023/11/12 10:45:30;;;;;;;3.40;2.40;;;11.30;99.90;;;;;;5088202;28;20478;-64
2023/11/12 10:47:57;;;;;;;3.23;2.93;;;11.20;99.90;;;;;;5087642;28;20495;-65
2023/11/12 10:50:28;;;;;;;3.63;2.77;;;11.20;99.90;;;;;;5086583;28;20961;-64
2023/11/12 10:52:54;;;;;;;2.50;2.30;;;11.20;99.90;;;;;;5087737;28;20501;-65
2023/11/12 10:55:24;;;;;;;5.37;2.83;;;11.00;99.90;;;;;;5086769;28;20477;-64
2023/11/12 10:57:51;;;;;;;4.90;2.47;;;11.10;99.90;;;;;;5088053;28;21094;-65
2023/11/12 11:00:20;;;;;;;3.23;2.60;;;11.10;99.90;;;;;;5089976;28;21170;-62
2023/11/12 11:02:47;;;;;;;3.60;2.50;;;11.10;99.90;;;;;;5087551;28;20448;-63
2023/11/12 11:05:13;;;;;;;3.30;2.77;;;11.10;99.90;;;;;;5083108;28;20490;-63
2023/11/12 11:07:39;;;;;;;3.23;2.93;;;11.00;99.90;;;;;;5087711;28;20449;-64
2023/11/12 11:10:07;;;;;;;3.00;2.70;;;11.10;99.90;;;;;;5087780;28;20831;-64
2023/11/12 11:12:33;;;;;;;3.43;3.10;;;11.20;99.90;;;;;;5091302;28;20457;-64
2023/11/12 11:15:36;;;;;;;3.33;2.70;;;11.20;99.90;;;;;;5080210;28;20454;-64
2023/11/12 11:18:06;;;;;;;3.37;2.57;;;11.20;99.90;;;;;;5086596;28;20547;-64
2023/11/12 11:21:00;;;;;;;8.53;3.70;;;11.20;99.90;;;;;;5085410;28;20445;-64
2023/11/12 11:23:47;;;;;;;3.27;2.70;;;11.20;99.90;;;;;;5075739;28;20482;-64
2023/11/12 11:26:27;;;;;;;3.07;2.73;;;11.30;99.90;;;;;;5087116;28;21116;-64
2023/11/12 11:29:05;;;;;;;2.13;1.93;;;11.30;99.90;;;;;;5087648;28;20502;-63
2023/11/12 11:31:35;;;;;;;4.23;2.70;;;11.50;99.90;;;;;;5090854;28;20449;-64
2023/11/12 11:34:03;;;;;;;4.93;2.17;;;11.40;99.90;;;;;;5085568;28;20959;-64
2023/11/12 11:36:30;;;;;;;2.73;2.20;;;11.60;99.90;;;;;;5089959;28;20645;-65
2023/11/12 11:41:48;;;;;;;2.70;2.30;;;11.80;99.90;;;;;;5088235;28;20457;-64
2023/11/12 11:47:05;;;;;;;2.70;2.03;;;12.00;99.90;;;;;;5085307;28;20478;-63
2023/11/12 11:49:30;;;;;;;3.73;2.37;;;12.20;99.90;;;;;;5087312;28;20454;-64
2023/11/12 11:51:58;;;;;;;2.30;1.80;;;12.30;99.90;;;;;;5090542;28;20456;-64
2023/11/12 11:54:25;;;;;;;2.60;2.17;;;12.40;99.90;;;;;;5085958;28;20557;-64
2023/11/12 11:56:51;;;;;;;1.70;1.60;;;12.60;99.90;;;;;;5086772;28;21241;-64
2023/11/12 11:59:18;;;;;;;3.73;2.10;;;12.80;99.90;;;;;;5085242;28;20438;-63
2023/11/12 12:01:46;;;;;;;3.23;1.63;;;12.90;99.90;;;;;;5088244;28;20458;-64
2023/11/12 12:04:13;;;;;;;1.87;1.73;;;12.90;99.90;;;;;;5083992;28;20560;-63
2023/11/12 12:06:46;;;;;;;2.27;1.83;;;12.90;99.90;;;;;;5087044;28;21420;-65
2023/11/12 12:09:19;;;;;;;2.57;2.07;;;13.00;99.90;;;;;;5090653;28;20448;-63
2023/11/12 12:11:52;;;;;;;2.57;1.70;;;12.90;99.90;;;;;;5087317;28;20569;-64
2023/11/12 12:14:24;;;;;;;2.80;1.43;;;12.80;99.90;;;;;;5084405;28;20472;-63
2023/11/12 12:16:50;;;;;;;2.50;1.53;;;12.60;99.90;;;;;;5086626;28;20449;-64
2023/11/12 12:19:18;;;;;;;2.53;1.70;;;12.60;99.90;;;;;;5084439;28;21197;-63
2023/11/12 12:21:45;;;;;;;3.10;1.60;;;12.40;99.90;;;;;;5088194;28;20453;-63
2023/11/12 12:24:11;;;;;;;1.80;1.50;;;12.10;99.90;;;;;;5084295;28;20900;-64
2023/11/12 12:26:37;;;;;;;1.93;1.60;;;11.90;99.90;;;;;;5086477;28;20451;-63
2023/11/12 12:29:15;;;;;;;1.80;1.40;;;11.80;99.90;;;;;;5086092;28;20442;-64
2023/11/12 12:31:44;;;;;;;2.43;1.63;;;11.70;99.90;;;;;;5087516;28;20279;-63
2023/11/12 12:34:16;;;;;;;2.27;1.70;;;11.60;99.90;;;;;;5086721;28;20450;-63
2023/11/12 12:37:05;;;;;;;3.30;2.33;;;11.70;99.90;;;;;;5085212;28;20457;-63
2023/11/12 12:39:52;;;;;;;1.60;1.30;;;11.60;99.90;;;;;;5089636;28;20441;-62
2023/11/12 12:42:19;;;;;;;4.17;1.50;;;11.50;99.90;;;;;;5081422;28;20888;-62
2023/11/12 12:44:51;;;;;;;2.40;1.80;;;11.40;99.90;;;;;;5084768;28;20466;-63
2023/11/12 12:47:41;;;;;;;5.00;2.10;;;11.40;99.90;;;;;;5087689;28;20824;-63
2023/11/12 12:50:25;;;;;;;3.20;1.57;;;11.50;99.90;;;;;;5084998;28;20450;-63
2023/11/12 12:52:51;;;;;;;5.07;2.07;;;11.40;99.90;;;;;;5084611;28;20450;-62
2023/11/12 12:55:20;;;;;;;3.37;2.50;;;11.50;99.90;;;;;;5081900;28;20515;-62
2023/11/12 12:57:49;;;;;;;3.17;2.60;;;11.50;99.90;;;;;;5083413;28;20491;-63